Time;durP1;ratioP1;P1;durP2;ratioP2;P2;SDS_P1;SDS_P2;PMS_P1;PMS_P2;Temp;Humidity;BMP_temperature;BMP_pressure;BME280_temperature;BME280_humidity;BME280_pressure;Samples;Min_cycle;Max_cycle;Signal;HPM_P1;HPM_P2
2023/06/17 00:02:06;;;;;;;12.77;10.87;;;13.80;99.90;;;;;;5197871;28;20434;-43
2023/06/17 00:04:37;;;;;;;16.07;11.83;;;13.80;99.90;;;;;;5188436;28;20188;-43
2023/06/17 00:07:07;;;;;;;12.10;9.67;;;13.80;99.90;;;;;;5189425;28;20215;-44
2023/06/17 00:09:41;;;;;;;13.20;9.43;;;13.80;99.90;;;;;;5175186;28;20543;-44
2023/06/17 00:12:12;;;;;;;13.13;9.73;;;13.80;99.90;;;;;;5189781;28;20176;-42
2023/06/17 00:14:43;;;;;;;10.20;9.20;;;13.80;99.90;;;;;;5205929;28;20508;-42
2023/06/17 00:17:14;;;;;;;16.70;10.73;;;13.70;99.90;;;;;;5202933;28;20518;-44
2023/06/17 00:19:45;;;;;;;12.60;9.23;;;13.80;99.90;;;;;;5200185;28;20514;-43
2023/06/17 00:22:16;;;;;;;9.50;8.63;;;13.70;99.90;;;;;;5209683;28;20180;-43
2023/06/17 00:24:47;;;;;;;12.00;10.47;;;13.70;99.90;;;;;;5206452;28;20226;-44
2023/06/17 00:27:17;;;;;;;10.13;9.20;;;13.70;99.90;;;;;;5188928;28;20843;-43
2023/06/17 00:29:48;;;;;;;12.70;10.37;;;13.70;99.90;;;;;;5189367;28;20234;-43
2023/06/17 00:32:19;;;;;;;11.37;10.10;;;13.70;99.90;;;;;;5200920;28;20267;-44
2023/06/17 00:34:49;;;;;;;9.60;8.77;;;13.70;99.90;;;;;;5201542;28;20239;-44
2023/06/17 00:37:20;;;;;;;9.60;8.70;;;13.60;99.90;;;;;;5170681;28;20272;-43
2023/06/17 00:39:51;;;;;;;14.40;10.17;;;13.60;99.90;;;;;;5214426;28;20652;-44
2023/06/17 00:42:22;;;;;;;12.03;9.50;;;13.60;99.90;;;;;;5213293;28;20435;-44
2023/06/17 00:44:53;;;;;;;9.10;8.33;;;13.60;99.90;;;;;;5214124;28;20691;-43
2023/06/17 00:47:24;;;;;;;14.17;9.90;;;13.60;99.90;;;;;;5207681;28;20227;-45
2023/06/17 00:49:57;;;;;;;10.73;9.60;;;13.60;99.90;;;;;;5157976;28;20200;-43
2023/06/17 00:52:28;;;;;;;18.07;11.47;;;13.60;99.90;;;;;;5192716;28;20439;-43
2023/06/17 00:54:58;;;;;;;11.40;9.17;;;13.60;99.90;;;;;;5187562;28;20514;-43
2023/06/17 00:57:29;;;;;;;14.70;11.03;;;13.60;99.90;;;;;;5202772;28;20207;-43
2023/06/17 01:00:01;;;;;;;12.20;10.90;;;13.60;99.90;;;;;;5195894;28;20183;-47
2023/06/17 01:02:32;;;;;;;10.83;9.73;;;13.60;99.90;;;;;;5194571;28;20283;-44
2023/06/17 01:05:04;;;;;;;15.20;10.93;;;13.60;99.90;;;;;;5187283;28;20459;-43
2023/06/17 01:07:46;;;;;;;11.00;9.97;;;13.60;99.90;;;;;;5202343;28;20215;-43
2023/06/17 01:10:25;;;;;;;20.23;12.87;;;13.60;99.90;;;;;;5193244;28;20502;-43
2023/06/17 01:12:58;;;;;;;19.40;10.93;;;13.60;99.90;;;;;;5176333;28;20455;-44
2023/06/17 01:15:36;;;;;;;11.70;9.47;;;13.60;99.90;;;;;;5213298;28;20427;-43
2023/06/17 01:18:08;;;;;;;13.43;10.00;;;13.60;99.90;;;;;;5212868;28;20434;-44
2023/06/17 01:20:41;;;;;;;11.27;10.17;;;13.60;99.90;;;;;;5199614;28;20941;-43
2023/06/17 01:23:14;;;;;;;12.20;10.87;;;13.70;99.90;;;;;;5196465;28;20932;-42
2023/06/17 01:25:45;;;;;;;16.10;10.70;;;13.70;99.90;;;;;;5192023;28;20449;-43
2023/06/17 01:28:19;;;;;;;12.90;10.73;;;13.70;99.90;;;;;;5206989;28;20493;-44
2023/06/17 01:30:56;;;;;;;11.20;10.10;;;13.70;99.90;;;;;;5190160;28;20439;-42
2023/06/17 01:33:27;;;;;;;17.10;12.30;;;13.70;99.90;;;;;;5184988;28;20434;-44
2023/06/17 01:36:12;;;;;;;14.20;11.50;;;13.70;99.90;;;;;;5201288;28;20414;-44
2023/06/17 01:38:43;;;;;;;18.47;13.90;;;13.70;99.90;;;;;;5210289;28;20191;-43
2023/06/17 01:41:21;;;;;;;13.23;11.77;;;13.70;99.90;;;;;;5203489;28;20491;-43
2023/06/17 01:43:56;;;;;;;14.70;10.97;;;13.70;99.90;;;;;;5204384;28;20505;-43
2023/06/17 01:46:27;;;;;;;18.23;10.33;;;13.80;99.90;;;;;;5188715;28;20434;-43
2023/06/17 01:48:58;;;;;;;15.63;11.93;;;13.80;99.90;;;;;;5187308;28;20995;-43
2023/06/17 01:51:30;;;;;;;15.63;12.03;;;13.80;99.90;;;;;;5203389;28;20453;-42
2023/06/17 01:54:01;;;;;;;20.07;11.57;;;13.80;99.90;;;;;;5195694;28;20422;-44
2023/06/17 01:56:32;;;;;;;18.40;11.17;;;13.80;99.90;;;;;;5192904;28;20474;-42
2023/06/17 01:59:02;;;;;;;23.83;13.57;;;13.80;99.90;;;;;;5207838;28;20175;-43
2023/06/17 02:01:33;;;;;;;18.33;11.47;;;13.80;99.90;;;;;;5201620;28;20497;-43
2023/06/17 02:04:04;;;;;;;15.47;11.90;;;13.80;99.90;;;;;;5204242;28;20664;-43
2023/06/17 02:06:37;;;;;;;30.70;15.80;;;13.80;99.90;;;;;;5208049;28;20250;-42
2023/06/17 02:09:08;;;;;;;15.60;12.00;;;13.80;99.90;;;;;;5198386;28;20885;-42
2023/06/17 02:11:39;;;;;;;14.40;10.70;;;13.80;99.90;;;;;;5194261;28;20444;-42
2023/06/17 02:14:10;;;;;;;16.73;11.63;;;13.80;99.90;;;;;;5203461;28;20426;-42
2023/06/17 02:16:47;;;;;;;11.73;10.20;;;13.80;99.90;;;;;;5190372;28;20230;-43
2023/06/17 02:19:17;;;;;;;13.53;10.30;;;13.70;99.90;;;;;;5182946;28;20279;-45
2023/06/17 02:21:50;;;;;;;13.97;9.67;;;13.70;99.90;;;;;;5185480;28;20522;-45
2023/06/17 02:24:24;;;;;;;12.20;11.00;;;13.70;99.90;;;;;;5206687;28;20189;-44
2023/06/17 02:26:55;;;;;;;14.03;12.10;;;13.70;99.90;;;;;;5202217;28;20819;-44
2023/06/17 02:29:26;;;;;;;15.47;10.23;;;13.80;99.90;;;;;;5187129;28;20473;-44
2023/06/17 02:31:56;;;;;;;10.63;9.50;;;13.80;99.90;;;;;;5196019;28;20434;-43
2023/06/17 02:34:27;;;;;;;16.97;11.63;;;13.90;99.90;;;;;;5179785;28;20526;-43
2023/06/17 02:36:58;;;;;;;16.10;11.80;;;13.90;99.90;;;;;;5202942;28;20188;-43
2023/06/17 02:39:29;;;;;;;12.30;10.97;;;13.80;99.90;;;;;;5184515;28;20223;-43
2023/06/17 02:41:59;;;;;;;18.10;12.50;;;13.90;99.90;;;;;;5197140;28;20188;-43
2023/06/17 02:44:30;;;;;;;11.50;9.77;;;13.90;99.90;;;;;;5207418;28;20551;-44
2023/06/17 02:47:02;;;;;;;16.90;13.83;;;13.80;99.90;;;;;;5195231;28;20266;-42
2023/06/17 02:49:32;;;;;;;12.93;10.13;;;13.80;99.90;;;;;;5194666;28;20241;-42
2023/06/17 02:52:04;;;;;;;13.60;11.57;;;13.80;99.90;;;;;;5184518;28;20522;-44
2023/06/17 02:54:35;;;;;;;14.10;10.80;;;13.80;99.90;;;;;;5188923;28;20596;-43
2023/06/17 02:57:06;;;;;;;16.70;12.10;;;13.90;99.90;;;;;;5189467;28;20481;-43
2023/06/17 02:59:37;;;;;;;14.50;11.53;;;13.90;99.90;;;;;;5193808;28;20210;-42
2023/06/17 03:02:08;;;;;;;13.57;11.67;;;14.00;99.90;;;;;;5189700;28;20199;-44
2023/06/17 03:04:39;;;;;;;13.33;9.97;;;13.90;99.90;;;;;;5205739;28;20619;-42
2023/06/17 03:07:11;;;;;;;18.20;13.03;;;13.90;99.90;;;;;;5203310;28;20254;-42
2023/06/17 03:09:42;;;;;;;14.07;10.77;;;13.90;99.90;;;;;;5206903;28;20994;-43
2023/06/17 03:12:14;;;;;;;14.83;11.90;;;13.90;99.90;;;;;;5202598;28;20418;-43
2023/06/17 03:14:47;;;;;;;24.83;13.80;;;13.90;99.90;;;;;;5198604;28;20172;-43
2023/06/17 03:17:18;;;;;;;13.90;11.17;;;13.90;99.90;;;;;;5189668;28;20489;-42
2023/06/17 03:19:48;;;;;;;22.77;15.27;;;13.90;99.90;;;;;;5208373;28;20434;-43
2023/06/17 03:22:19;;;;;;;20.53;13.90;;;14.00;99.90;;;;;;5188906;28;20196;-42
2023/06/17 03:24:50;;;;;;;12.17;10.60;;;14.00;99.90;;;;;;5180003;28;20181;-43
2023/06/17 03:27:21;;;;;;;13.80;12.20;;;14.00;99.90;;;;;;5207483;28;20609;-43
2023/06/17 03:29:52;;;;;;;13.90;11.57;;;14.00;99.90;;;;;;5201834;28;20430;-43
2023/06/17 03:32:22;;;;;;;18.53;13.37;;;14.00;99.90;;;;;;5175751;28;20191;-44
2023/06/17 03:34:53;;;;;;;16.37;11.27;;;14.00;99.90;;;;;;5186707;28;20202;-43
2023/06/17 03:37:24;;;;;;;12.80;11.47;;;14.10;99.90;;;;;;5200985;28;20203;-43
2023/06/17 03:39:54;;;;;;;12.73;11.40;;;14.10;99.90;;;;;;5188299;28;20642;-43
2023/06/17 03:42:25;;;;;;;12.80;10.70;;;14.10;99.90;;;;;;5191658;28;20219;-43
2023/06/17 03:44:56;;;;;;;13.23;11.83;;;14.20;99.90;;;;;;5192504;28;20184;-45
2023/06/17 03:47:28;;;;;;;13.10;11.80;;;14.20;99.90;;;;;;5190687;28;20203;-44
2023/06/17 03:49:58;;;;;;;12.77;10.87;;;14.20;99.90;;;;;;5199167;28;20180;-44
2023/06/17 03:52:29;;;;;;;12.87;10.10;;;14.20;99.90;;;;;;5200172;28;20442;-43
2023/06/17 03:55:00;;;;;;;14.10;12.37;;;14.20;99.90;;;;;;5201428;28;20192;-44
2023/06/17 03:57:31;;;;;;;12.13;10.30;;;14.30;99.90;;;;;;5191953;28;20223;-44
2023/06/17 04:00:04;;;;;;;14.70;10.47;;;14.30;99.90;;;;;;5184997;28;20649;-44
2023/06/17 04:02:34;;;;;;;12.47;11.27;;;14.30;99.90;;;;;;5197386;28;20270;-44
2023/06/17 04:05:06;;;;;;;13.40;12.00;;;14.40;99.90;;;;;;5189206;28;20621;-44
2023/06/17 04:07:38;;;;;;;12.43;10.77;;;14.50;99.90;;;;;;5183638;28;20196;-44
2023/06/17 04:10:09;;;;;;;11.47;10.20;;;14.40;99.90;;;;;;5201662;28;20439;-45
2023/06/17 04:12:42;;;;;;;16.77;12.70;;;14.40;99.90;;;;;;5198761;28;20891;-45
2023/06/17 04:15:13;;;;;;;14.70;11.93;;;14.40;99.90;;;;;;5191606;28;20433;-45
2023/06/17 04:17:43;;;;;;;15.40;12.27;;;14.40;99.90;;;;;;5189189;28;20788;-45
2023/06/17 04:20:14;;;;;;;13.70;11.73;;;14.50;99.90;;;;;;5191219;28;20183;-44
2023/06/17 04:22:45;;;;;;;17.87;12.37;;;14.50;99.90;;;;;;5196086;28;20642;-45
2023/06/17 04:25:20;;;;;;;15.00;11.93;;;14.60;99.90;;;;;;5189376;28;20268;-45
2023/06/17 04:27:53;;;;;;;12.77;11.47;;;14.70;99.90;;;;;;5210170;28;20701;-44
2023/06/17 04:30:25;;;;;;;14.90;12.67;;;14.60;99.90;;;;;;5211773;28;20505;-45
2023/06/17 04:33:00;;;;;;;13.67;11.97;;;14.70;99.90;;;;;;5190138;28;20511;-43
2023/06/17 04:35:30;;;;;;;24.30;16.40;;;14.70;99.90;;;;;;5170251;28;20441;-43
2023/06/17 04:38:02;;;;;;;17.30;12.90;;;14.80;99.90;;;;;;5192158;28;20840;-43
2023/06/17 04:40:36;;;;;;;25.47;17.67;;;14.90;99.90;;;;;;5206402;28;20688;-43
2023/06/17 04:43:08;;;;;;;23.63;17.33;;;14.90;99.90;;;;;;5189182;28;21020;-44
2023/06/17 04:45:40;;;;;;;22.27;14.40;;;15.00;99.90;;;;;;5187116;28;20433;-42
2023/06/17 04:48:10;;;;;;;20.47;15.00;;;15.30;99.90;;;;;;5182556;28;20982;-43
2023/06/17 04:50:42;;;;;;;18.20;15.67;;;15.60;99.90;;;;;;5209790;28;20434;-44
2023/06/17 04:53:12;;;;;;;14.20;12.80;;;15.60;99.90;;;;;;5173891;28;20190;-43
2023/06/17 04:55:43;;;;;;;19.10;14.63;;;15.70;99.90;;;;;;5202700;28;20504;-43
2023/06/17 04:58:14;;;;;;;16.13;14.00;;;15.90;99.90;;;;;;5209161;28;20204;-43
2023/06/17 05:00:44;;;;;;;16.37;13.13;;;16.00;99.90;;;;;;5197347;28;20195;-45
2023/06/17 05:03:15;;;;;;;17.60;15.13;;;16.20;99.90;;;;;;5204450;28;20180;-43
2023/06/17 05:05:46;;;;;;;16.20;13.47;;;16.20;99.90;;;;;;5213502;28;20211;-42
2023/06/17 05:08:17;;;;;;;14.40;11.77;;;16.20;99.90;;;;;;5193796;28;20204;-42
2023/06/17 05:10:48;;;;;;;17.40;13.87;;;16.10;99.90;;;;;;5207301;28;20206;-42
2023/06/17 05:13:18;;;;;;;15.63;13.07;;;16.10;99.90;;;;;;5205199;28;20306;-43
2023/06/17 05:15:49;;;;;;;14.50;12.80;;;16.10;99.90;;;;;;5208534;28;20627;-43
2023/06/17 05:18:20;;;;;;;15.33;13.70;;;16.40;99.90;;;;;;5204913;28;20206;-43
2023/06/17 05:20:50;;;;;;;18.00;13.97;;;16.50;99.90;;;;;;5180575;28;20188;-43
2023/06/17 05:23:21;;;;;;;14.97;13.47;;;16.80;99.90;;;;;;5211202;28;20184;-43
2023/06/17 05:25:52;;;;;;;12.60;11.30;;;17.10;99.90;;;;;;5200685;28;20199;-43
2023/06/17 05:28:22;;;;;;;12.03;10.93;;;17.80;99.90;;;;;;5202427;28;20234;-43
2023/06/17 05:30:53;;;;;;;14.40;10.80;;;18.10;99.90;;;;;;5207873;28;20660;-42
2023/06/17 05:33:24;;;;;;;13.37;11.60;;;18.10;99.90;;;;;;5204204;28;20176;-43
2023/06/17 05:36:00;;;;;;;9.40;8.53;;;18.00;99.90;;;;;;5183741;28;20187;-43
2023/06/17 05:38:30;;;;;;;12.70;10.07;;;17.80;99.90;;;;;;5201959;28;20298;-44
2023/06/17 05:41:01;;;;;;;11.10;10.00;;;17.80;99.90;;;;;;5198390;28;20469;-43
2023/06/17 05:43:32;;;;;;;12.50;9.67;;;17.80;99.90;;;;;;5195056;28;20180;-43
2023/06/17 05:46:02;;;;;;;11.17;10.00;;;17.60;99.90;;;;;;5212124;28;20703;-44
2023/06/17 05:48:33;;;;;;;11.80;9.80;;;17.50;99.90;;;;;;5197043;28;20228;-42
2023/06/17 05:51:05;;;;;;;14.93;11.27;;;17.50;99.90;;;;;;5212776;28;20194;-45
2023/06/17 05:53:36;;;;;;;11.33;10.10;;;17.50;99.90;;;;;;5203560;28;20188;-46
2023/06/17 05:56:09;;;;;;;12.83;11.40;;;17.40;99.90;;;;;;5193247;28;20446;-42
2023/06/17 05:58:40;;;;;;;14.93;11.63;;;17.50;99.90;;;;;;5206590;28;20179;-42
2023/06/17 06:01:12;;;;;;;17.37;12.73;;;17.40;99.90;;;;;;5199342;28;20439;-43
2023/06/17 06:03:42;;;;;;;13.50;11.33;;;17.40;99.90;;;;;;5204415;28;20187;-44
2023/06/17 06:06:13;;;;;;;15.03;13.43;;;17.40;99.90;;;;;;5182494;28;20435;-45
2023/06/17 06:08:44;;;;;;;15.00;13.40;;;17.30;99.90;;;;;;5202295;28;20222;-42
2023/06/17 06:11:15;;;;;;;16.27;11.93;;;17.20;99.90;;;;;;5191095;28;20551;-42
2023/06/17 06:13:46;;;;;;;11.57;10.33;;;17.20;99.90;;;;;;5190203;28;20176;-42
2023/06/17 06:16:16;;;;;;;13.67;11.80;;;17.20;99.90;;;;;;5196994;28;20486;-43
2023/06/17 06:18:47;;;;;;;14.63;11.03;;;17.20;99.90;;;;;;5190757;28;20179;-42
2023/06/17 06:21:18;;;;;;;15.07;12.70;;;17.40;99.90;;;;;;5211033;28;20192;-43
2023/06/17 06:23:49;;;;;;;14.60;12.30;;;17.40;99.90;;;;;;5194647;28;20188;-44
2023/06/17 06:26:20;;;;;;;16.03;12.43;;;17.50;99.90;;;;;;5180668;28;20300;-43
2023/06/17 06:28:51;;;;;;;12.80;11.43;;;17.80;99.90;;;;;;5170474;28;20451;-43
2023/06/17 06:31:22;;;;;;;14.17;11.60;;;18.00;99.90;;;;;;5185823;28;20442;-44
2023/06/17 06:33:52;;;;;;;13.20;11.90;;;18.10;99.90;;;;;;5204607;28;20215;-43
2023/06/17 06:36:23;;;;;;;17.80;11.03;;;18.20;99.90;;;;;;5207003;28;20630;-43
2023/06/17 06:38:54;;;;;;;16.47;12.10;;;18.50;99.90;;;;;;5206206;28;20202;-42
2023/06/17 06:41:25;;;;;;;12.23;10.93;;;18.80;99.90;;;;;;5200444;28;20270;-43
2023/06/17 06:43:56;;;;;;;13.43;11.87;;;19.00;99.90;;;;;;5190679;28;20486;-44
2023/06/17 06:46:27;;;;;;;16.60;12.93;;;18.90;99.90;;;;;;5206062;28;20188;-43
2023/06/17 06:48:58;;;;;;;14.63;11.53;;;19.00;99.90;;;;;;5203476;28;20245;-44
2023/06/17 06:51:29;;;;;;;12.43;11.10;;;19.00;99.90;;;;;;5191887;28;20260;-43
2023/06/17 06:54:00;;;;;;;12.63;11.33;;;19.00;99.90;;;;;;5205978;28;20470;-44
2023/06/17 06:56:30;;;;;;;14.60;12.13;;;19.10;99.90;;;;;;5202991;28;20502;-43
2023/06/17 06:59:01;;;;;;;17.20;11.93;;;18.90;99.90;;;;;;5194363;28;20191;-44
2023/06/17 07:01:32;;;;;;;13.33;11.93;;;18.70;99.90;;;;;;5189304;28;20247;-43
2023/06/17 07:04:02;;;;;;;15.47;12.80;;;18.40;99.90;;;;;;5192791;28;20563;-43
2023/06/17 07:06:35;;;;;;;15.20;11.23;;;18.20;99.90;;;;;;5201282;28;20302;-42
2023/06/17 07:09:06;;;;;;;14.23;12.50;;;18.20;99.90;;;;;;5180282;28;20588;-42
2023/06/17 07:11:37;;;;;;;16.70;12.60;;;18.40;99.90;;;;;;5210502;28;20441;-43
2023/06/17 07:14:07;;;;;;;15.77;13.33;;;18.20;99.90;;;;;;5203475;28;20438;-43
2023/06/17 07:16:38;;;;;;;15.17;13.10;;;18.10;99.90;;;;;;5188193;28;20200;-44
2023/06/17 07:19:09;;;;;;;22.40;12.87;;;18.00;99.90;;;;;;5206194;28;20237;-45
2023/06/17 07:21:39;;;;;;;16.83;12.47;;;18.00;99.90;;;;;;5185590;28;20184;-43
2023/06/17 07:24:10;;;;;;;14.33;12.50;;;18.00;99.90;;;;;;5197713;28;20539;-42
2023/06/17 07:26:41;;;;;;;16.53;13.37;;;18.00;99.90;;;;;;5188929;28;20254;-45
2023/06/17 07:29:11;;;;;;;16.87;13.20;;;18.00;99.90;;;;;;5187762;28;20208;-43
2023/06/17 07:31:42;;;;;;;15.37;11.67;;;18.20;99.90;;;;;;5209812;28;20202;-44
2023/06/17 07:34:13;;;;;;;11.60;10.50;;;18.40;99.90;;;;;;5196110;28;20180;-44
2023/06/17 07:36:44;;;;;;;13.43;10.97;;;18.80;99.90;;;;;;5212068;28;20208;-45
2023/06/17 07:39:15;;;;;;;16.30;11.13;;;19.20;99.90;;;;;;5198304;28;20195;-44
2023/06/17 07:41:45;;;;;;;14.77;13.20;;;19.50;99.90;;;;;;5206477;28;20622;-42
2023/06/17 07:44:17;;;;;;;13.87;12.37;;;19.50;99.90;;;;;;5202958;28;20180;-44
2023/06/17 07:46:48;;;;;;;14.80;11.90;;;19.20;99.90;;;;;;5190757;28;20357;-44
2023/06/17 07:49:18;;;;;;;12.57;11.30;;;19.00;99.90;;;;;;5212476;28;20540;-44
2023/06/17 07:51:49;;;;;;;14.03;11.77;;;19.10;99.90;;;;;;5210291;28;20175;-44
2023/06/17 07:54:20;;;;;;;15.40;11.07;;;19.20;99.90;;;;;;5207641;28;20595;-44
2023/06/17 07:56:51;;;;;;;13.70;12.23;;;19.50;99.90;;;;;;5205761;28;20207;-43
2023/06/17 07:59:21;;;;;;;12.87;10.27;;;19.60;99.90;;;;;;5205780;28;20559;-43
2023/06/17 08:01:52;;;;;;;13.40;12.00;;;19.80;99.90;;;;;;5181736;28;20184;-44
2023/06/17 08:04:22;;;;;;;15.17;11.50;;;19.70;99.90;;;;;;5204183;28;20209;-44
2023/06/17 08:06:53;;;;;;;11.67;10.23;;;19.60;99.90;;;;;;5196265;28;20637;-43
2023/06/17 08:09:24;;;;;;;12.87;9.57;;;19.40;99.90;;;;;;5205118;28;20672;-44
2023/06/17 08:11:55;;;;;;;9.30;8.40;;;19.30;99.90;;;;;;5192195;28;20188;-42
2023/06/17 08:14:26;;;;;;;11.57;9.57;;;20.00;99.90;;;;;;5198833;28;20636;-43
2023/06/17 08:16:57;;;;;;;13.60;9.87;;;20.80;99.90;;;;;;5189552;28;20537;-44
2023/06/17 08:19:28;;;;;;;11.33;10.20;;;21.50;99.90;;;;;;5206030;28;20187;-42
2023/06/17 08:21:58;;;;;;;11.47;10.27;;;21.60;99.90;;;;;;5208676;28;20211;-46
2023/06/17 08:24:29;;;;;;;11.40;9.70;;;21.80;99.90;;;;;;5212141;28;20222;-43
2023/06/17 08:27:00;;;;;;;11.73;10.33;;;21.60;99.90;;;;;;5200797;28;20308;-43
2023/06/17 08:29:31;;;;;;;11.60;10.40;;;21.30;99.90;;;;;;5215553;28;20203;-44
2023/06/17 08:32:01;;;;;;;15.87;10.97;;;20.90;99.90;;;;;;5198715;28;20181;-42
2023/06/17 08:34:34;;;;;;;12.00;9.73;;;20.70;99.90;;;;;;5187744;28;20536;-44
2023/06/17 08:37:06;;;;;;;10.83;9.80;;;20.40;99.90;;;;;;5190660;28;20191;-44
2023/06/17 08:39:39;;;;;;;10.30;8.77;;;20.30;99.90;;;;;;5210517;28;20480;-43
2023/06/17 08:42:10;;;;;;;13.90;10.63;;;20.20;99.90;;;;;;5197747;28;20526;-44
2023/06/17 08:44:46;;;;;;;16.40;11.20;;;20.30;99.90;;;;;;5190602;28;20492;-43
2023/06/17 08:47:17;;;;;;;10.07;9.03;;;20.00;99.90;;;;;;5197704;28;20482;-44
2023/06/17 08:49:48;;;;;;;9.97;8.97;;;20.10;99.90;;;;;;5218561;28;20494;-43
2023/06/17 08:52:20;;;;;;;11.43;9.33;;;20.40;99.90;;;;;;5203287;28;20461;-43
2023/06/17 08:54:53;;;;;;;9.60;8.30;;;20.90;99.90;;;;;;5204798;28;20453;-43
2023/06/17 08:57:24;;;;;;;10.37;9.27;;;21.10;99.90;;;;;;5206731;28;20454;-44
2023/06/17 08:59:55;;;;;;;9.90;8.90;;;21.10;99.90;;;;;;5204306;28;20438;-45
2023/06/17 09:02:26;;;;;;;10.00;9.00;;;21.40;99.90;;;;;;5179740;28;20642;-45
2023/06/17 09:04:58;;;;;;;13.10;9.80;;;21.70;99.90;;;;;;5181826;28;21041;-45
2023/06/17 09:07:28;;;;;;;13.80;9.70;;;21.80;99.90;;;;;;5204539;28;20751;-43
2023/06/17 09:10:07;;;;;;;13.07;11.07;;;22.10;99.90;;;;;;5191913;28;20426;-44
2023/06/17 09:12:38;;;;;;;9.83;8.20;;;22.30;99.90;;;;;;5197710;28;20188;-44
2023/06/17 09:15:17;;;;;;;10.57;9.57;;;22.20;99.90;;;;;;5207194;28;20427;-43
2023/06/17 09:17:50;;;;;;;9.00;8.20;;;22.30;99.90;;;;;;5196378;28;20450;-44
2023/06/17 09:20:23;;;;;;;11.43;9.30;;;22.40;99.90;;;;;;5191814;28;20461;-44
2023/06/17 09:22:53;;;;;;;10.67;9.53;;;22.30;99.90;;;;;;5206667;28;20486;-44
2023/06/17 09:25:25;;;;;;;9.90;8.27;;;22.20;99.90;;;;;;5205806;28;20410;-43
2023/06/17 09:27:56;;;;;;;9.60;8.70;;;21.90;99.90;;;;;;5208605;28;20207;-44
2023/06/17 09:30:27;;;;;;;9.97;9.07;;;21.40;99.90;;;;;;5192900;28;20441;-44
2023/06/17 09:32:58;;;;;;;10.80;9.70;;;21.10;99.90;;;;;;5209760;28;20203;-44
2023/06/17 09:35:32;;;;;;;15.20;11.23;;;20.60;99.90;;;;;;5188884;28;20439;-43
2023/06/17 09:38:03;;;;;;;13.17;11.20;;;20.00;99.90;;;;;;5183704;28;20619;-43
2023/06/17 09:40:37;;;;;;;12.70;10.00;;;19.70;99.90;;;;;;5186105;28;20502;-45
2023/06/17 09:43:11;;;;;;;12.90;10.90;;;19.70;99.90;;;;;;5201398;28;20271;-46
2023/06/17 09:45:44;;;;;;;9.70;8.87;;;19.70;99.90;;;;;;5204265;28;20457;-46
2023/06/17 09:48:17;;;;;;;11.53;9.90;;;19.80;99.90;;;;;;5202272;28;20459;-45
2023/06/17 09:50:55;;;;;;;12.37;11.07;;;20.00;99.90;;;;;;5205238;28;20438;-45
2023/06/17 09:53:30;;;;;;;11.67;10.50;;;20.40;99.90;;;;;;5202293;28;20470;-45
2023/06/17 09:56:02;;;;;;;11.53;10.33;;;20.80;99.90;;;;;;5187053;28;20458;-45
2023/06/17 09:58:34;;;;;;;13.23;10.10;;;20.90;99.90;;;;;;5173640;28;20867;-45
2023/06/17 10:01:08;;;;;;;13.80;10.50;;;20.50;99.90;;;;;;5198378;28;20501;-44
2023/06/17 10:03:41;;;;;;;9.73;8.50;;;20.30;99.90;;;;;;5176676;28;20426;-46
2023/06/17 10:06:16;;;;;;;9.87;8.93;;;20.20;99.90;;;;;;5202307;28;20798;-44
2023/06/17 10:08:50;;;;;;;12.30;10.33;;;20.40;99.90;;;;;;5204839;28;20464;-45
2023/06/17 10:11:22;;;;;;;10.17;9.07;;;20.70;99.90;;;;;;5186221;28;20430;-45
2023/06/17 10:14:07;;;;;;;10.20;9.20;;;21.10;99.90;;;;;;5205563;28;20764;-45
2023/06/17 10:16:47;;;;;;;9.70;8.80;;;21.40;99.90;;;;;;5197359;28;20430;-45
2023/06/17 10:19:23;;;;;;;10.03;8.97;;;21.90;99.90;;;;;;5193511;28;20492;-44
2023/06/17 10:21:56;;;;;;;10.67;9.10;;;22.50;99.90;;;;;;5198933;28;20437;-46
2023/06/17 10:24:27;;;;;;;12.90;8.73;;;22.40;99.90;;;;;;5206536;28;20429;-44
2023/06/17 10:27:03;;;;;;;11.10;9.50;;;21.80;99.90;;;;;;5204330;28;20496;-45
2023/06/17 10:29:34;;;;;;;10.70;9.60;;;21.60;99.90;;;;;;5197013;28;20473;-45
2023/06/17 10:32:24;;;;;;;10.47;9.03;;;21.50;99.90;;;;;;5194906;28;20519;-45
2023/06/17 10:35:07;;;;;;;10.87;9.80;;;21.70;99.90;;;;;;5203312;28;20175;-45
2023/06/17 10:37:42;;;;;;;12.93;10.53;;;21.80;99.90;;;;;;5197997;28;20437;-43
2023/06/17 10:40:24;;;;;;;10.30;9.00;;;21.60;99.90;;;;;;5191031;28;20505;-44
2023/06/17 10:43:01;;;;;;;17.83;11.00;;;22.00;99.90;;;;;;5192786;28;20787;-44
2023/06/17 10:45:53;;;;;;;10.37;9.00;;;22.20;99.90;;;;;;5207801;28;20437;-44
2023/06/17 10:48:29;;;;;;;13.20;9.20;;;22.20;99.90;;;;;;5194088;28;20794;-42
2023/06/17 10:51:11;;;;;;;11.23;10.07;;;22.20;99.90;;;;;;5186719;28;20513;-44
2023/06/17 10:53:51;;;;;;;10.07;8.87;;;21.80;99.90;;;;;;5192253;28;20514;-44
2023/06/17 10:56:22;;;;;;;9.40;8.07;;;21.80;99.90;;;;;;5196060;28;20431;-43
2023/06/17 10:58:52;;;;;;;11.60;9.60;;;21.80;99.90;;;;;;5202673;28;20417;-43
2023/06/17 11:01:26;;;;;;;9.50;8.50;;;22.00;99.90;;;;;;5176127;28;20186;-43
2023/06/17 11:03:58;;;;;;;12.50;8.33;;;22.10;99.90;;;;;;5192314;28;20243;-43
2023/06/17 11:06:32;;;;;;;8.73;7.83;;;22.10;99.90;;;;;;5204184;28;20472;-44
2023/06/17 11:09:04;;;;;;;9.10;7.30;;;22.30;99.90;;;;;;5202788;28;20474;-42
2023/06/17 11:11:35;;;;;;;9.57;7.90;;;22.80;99.90;;;;;;5200530;28;20588;-43
2023/06/17 11:14:06;;;;;;;9.10;7.97;;;23.10;99.90;;;;;;5197995;28;20798;-43
2023/06/17 11:16:37;;;;;;;6.03;5.23;;;23.20;99.90;;;;;;5200168;28;20207;-43
2023/06/17 11:19:07;;;;;;;7.83;6.40;;;23.10;99.90;;;;;;5192131;28;20244;-45
2023/06/17 11:21:38;;;;;;;12.20;7.27;;;23.00;99.90;;;;;;5188568;28;20188;-42
2023/06/17 11:24:10;;;;;;;9.73;8.07;;;22.80;99.90;;;;;;5209552;28;20194;-43
2023/06/17 11:26:42;;;;;;;9.00;8.07;;;22.10;99.90;;;;;;5189547;28;20668;-43
2023/06/17 11:29:13;;;;;;;10.20;8.20;;;21.00;99.90;;;;;;5193994;28;21036;-43
2023/06/17 11:31:44;;;;;;;12.70;8.10;;;20.10;99.90;;;;;;5196195;28;20479;-44
2023/06/17 11:34:16;;;;;;;8.17;6.67;;;19.70;99.90;;;;;;5195820;28;20474;-43
2023/06/17 11:36:54;;;;;;;7.37;6.77;;;19.40;99.90;;;;;;5189929;28;20195;-44
2023/06/17 11:39:28;;;;;;;8.67;7.60;;;19.10;99.90;;;;;;5191318;28;20460;-44
2023/06/17 11:42:03;;;;;;;13.50;10.57;;;18.80;99.90;;;;;;5205137;28;20427;-45
2023/06/17 11:44:34;;;;;;;12.17;10.70;;;18.70;99.90;;;;;;5209099;28;20524;-43
2023/06/17 11:47:07;;;;;;;17.97;12.77;;;18.40;99.90;;;;;;5210769;28;20453;-43
2023/06/17 11:49:42;;;;;;;14.93;9.87;;;18.20;99.90;;;;;;5206639;28;20962;-44
2023/06/17 11:52:14;;;;;;;11.23;10.03;;;18.30;99.90;;;;;;5202182;28;20445;-44
2023/06/17 11:54:52;;;;;;;11.20;10.10;;;18.40;99.90;;;;;;5205284;28;20526;-43
2023/06/17 11:57:25;;;;;;;10.57;9.50;;;18.60;99.90;;;;;;5188460;28;20461;-43
2023/06/17 12:00:09;;;;;;;10.13;9.13;;;18.70;99.90;;;;;;5189822;28;20426;-44
2023/06/17 12:02:40;;;;;;;13.03;9.43;;;18.70;99.90;;;;;;5199445;28;20435;-44
2023/06/17 12:05:11;;;;;;;11.57;9.20;;;18.80;99.90;;;;;;5192060;28;20468;-42
2023/06/17 12:07:42;;;;;;;7.60;7.00;;;18.90;99.90;;;;;;5205151;28;20274;-43
2023/06/17 12:10:13;;;;;;;8.60;7.20;;;19.00;99.90;;;;;;5200578;28;20438;-43
2023/06/17 12:12:45;;;;;;;6.50;5.97;;;19.00;99.90;;;;;;5195637;28;20976;-43
2023/06/17 12:15:16;;;;;;;7.10;6.47;;;19.00;99.90;;;;;;5195305;28;20203;-42
2023/06/17 12:17:51;;;;;;;5.10;4.60;;;19.20;99.90;;;;;;5189522;28;20458;-42
2023/06/17 12:20:21;;;;;;;4.83;4.43;;;19.20;99.90;;;;;;5224236;28;20205;-43
2023/06/17 12:22:55;;;;;;;7.60;4.50;;;19.30;99.90;;;;;;5215637;28;20426;-42
2023/06/17 12:25:25;;;;;;;4.30;4.00;;;19.40;99.90;;;;;;5205821;28;20180;-45
2023/06/17 12:27:56;;;;;;;4.30;3.90;;;19.50;99.90;;;;;;5191655;28;20457;-44
2023/06/17 12:30:27;;;;;;;5.67;5.17;;;19.70;99.90;;;;;;5186735;28;20643;-42
2023/06/17 12:32:58;;;;;;;4.57;4.27;;;19.70;99.90;;;;;;5206363;28;20176;-42
2023/06/17 12:35:29;;;;;;;4.67;4.30;;;19.60;99.90;;;;;;5210673;28;20628;-42
2023/06/17 12:38:00;;;;;;;12.97;7.07;;;19.80;99.90;;;;;;5189791;28;20242;-43
2023/06/17 12:40:30;;;;;;;4.90;4.50;;;19.90;99.90;;;;;;5201794;28;20660;-44
2023/06/17 12:43:01;;;;;;;8.73;6.10;;;19.90;99.90;;;;;;5198362;28;20184;-43
2023/06/17 12:45:32;;;;;;;6.10;5.50;;;20.00;99.90;;;;;;5205322;28;20194;-43
2023/06/17 12:48:03;;;;;;;5.93;5.13;;;19.80;99.90;;;;;;5191293;28;20298;-43
2023/06/17 12:50:33;;;;;;;5.17;4.77;;;19.70;99.90;;;;;;5189574;28;20652;-44
2023/06/17 12:53:05;;;;;;;12.77;7.57;;;19.50;99.90;;;;;;5204520;28;20415;-43
2023/06/17 12:55:35;;;;;;;4.93;4.57;;;19.40;99.90;;;;;;5186528;28;20180;-42
2023/06/17 12:58:07;;;;;;;6.10;5.60;;;19.20;99.90;;;;;;5182405;28;20481;-43